Downstream station:
SHEF ID: FRGO2 Cimarron River near Forgan, OK
STATION TYPE:
Regulating: Stage = 5.00, Flow = 515
PRECIP STAGE RIV-FLOW BAT-LOAD
in ft cfs volt
Ccp-Rev Ccp-Rev Ccp-Rev Ccp-Rev
(US/Central)
02/03 00:00 0.00 1.94 18 12.57
02/03 01:00 0.00 1.93 18 12.49
02/03 02:00 0.00 1.92 18 12.49
02/03 03:00 0.00 1.92 18 12.49
02/03 04:00 0.00 1.93 18 12.41
02/03 05:00 0.00 1.94 18 12.41
02/03 06:00 0.00 1.93 18 12.41
02/03 07:00 0.00 1.93 18 12.41
02/03 08:00 0.00 1.92 18 12.41
02/03 09:00 0.00 1.94 18 12.41
02/03 10:00 0.00 1.96 19 12.49
02/03 11:00 0.00 2.02 20 12.73
02/03 12:00 0.00 2.13 23 13.13
02/03 13:00 0.00 2.14 24 13.29
02/03 14:00 0.00 2.04 21 13.21
02/03 15:00 0.00 2.02 20 13.13
02/03 16:00 0.00 1.99 19 13.13
02/03 17:00 0.00 1.99 19 13.05
02/03 18:00 0.00 1.99 19 12.89
02/03 19:00 0.00 2.00 20 12.73
02/03 20:00 0.00 2.00 20 12.65
02/03 21:00 0.00 2.02 20 12.65
02/03 22:00 0.00 2.04 21 12.65
02/03 23:00 0.00 2.07 22 12.57